Time;durP1;ratioP1;P1;durP2;ratioP2;P2;SDS_P1;SDS_P2;PMS_P1;PMS_P2;Temp;Humidity;BMP_temperature;BMP_pressure;BME280_temperature;BME280_humidity;BME280_pressure;Samples;Min_cycle;Max_cycle;Signal;HPM_P1;HPM_P2
2021/11/14 00:00:38;;;;;;;26.65;19.25;;;23.00;87.70;;;;;;1941352;72;21112;-79
2021/11/14 00:03:09;;;;;;;26.15;18.55;;;23.00;88.80;;;;;;1954168;72;21573;-77
2021/11/14 00:05:42;;;;;;;24.25;17.90;;;23.00;87.80;;;;;;1965245;72;21080;-78
2021/11/14 00:08:15;;;;;;;23.98;17.95;;;23.00;87.20;;;;;;1961356;72;21590;-77
2021/11/14 00:10:49;;;;;;;25.97;18.00;;;23.00;87.20;;;;;;1935755;72;21620;-78
2021/11/14 00:13:21;;;;;;;25.00;19.25;;;23.00;87.30;;;;;;1964100;73;21552;-78
2021/11/14 00:15:52;;;;;;;25.27;21.40;;;23.10;87.80;;;;;;1964106;73;21208;-78
2021/11/14 00:18:24;;;;;;;29.92;26.73;;;23.10;88.00;;;;;;1962990;72;21585;-78
2021/11/14 00:20:55;;;;;;;27.35;22.05;;;23.20;88.20;;;;;;1953495;72;21068;-78
2021/11/14 00:23:26;;;;;;;38.08;28.57;;;23.20;88.30;;;;;;1940226;72;21712;-78
2021/11/14 00:25:56;;;;;;;64.22;46.53;;;23.30;87.90;;;;;;1905726;75;21123;-78
2021/11/14 00:28:27;;;;;;;48.58;39.50;;;23.30;87.70;;;;;;1952985;72;21213;-78
2021/11/14 00:30:58;;;;;;;47.08;35.38;;;23.30;87.20;;;;;;1897694;75;21903;-78
2021/11/14 00:33:29;;;;;;;43.55;35.03;;;23.40;87.10;;;;;;1861703;76;21181;-77
2021/11/14 00:36:00;;;;;;;42.50;31.87;;;23.40;87.00;;;;;;1882206;75;21224;-79
2021/11/14 00:38:31;;;;;;;39.03;30.43;;;23.40;87.40;;;;;;1885745;76;21075;-78
2021/11/14 00:41:02;;;;;;;33.53;24.77;;;23.40;87.00;;;;;;1894147;75;21470;-78
2021/11/14 00:43:33;;;;;;;39.60;25.57;;;23.50;86.50;;;;;;1969594;71;21614;-78
2021/11/14 00:46:07;;;;;;;36.68;27.85;;;23.50;86.70;;;;;;2009773;71;21193;-78
2021/11/14 00:48:41;;;;;;;33.63;24.98;;;23.60;86.80;;;;;;1940189;74;21640;-78
2021/11/14 00:51:14;;;;;;;33.40;23.02;;;23.60;86.50;;;;;;1985121;71;21088;-79
2021/11/14 00:53:45;;;;;;;33.02;22.90;;;23.70;86.30;;;;;;2000466;71;21165;-79
2021/11/14 00:56:16;;;;;;;25.90;20.60;;;23.70;86.10;;;;;;2007160;71;21084;-79
2021/11/14 00:58:47;;;;;;;24.37;19.05;;;23.70;85.90;;;;;;2008947;71;21168;-79
2021/11/14 01:01:19;;;;;;;25.23;19.55;;;23.80;85.70;;;;;;1936957;73;21596;-78
2021/11/14 01:03:50;;;;;;;24.55;18.17;;;23.80;85.40;;;;;;1987515;71;21496;-78
2021/11/14 01:06:21;;;;;;;27.30;20.27;;;23.90;85.70;;;;;;1997528;71;21621;-77
2021/11/14 01:08:52;;;;;;;28.52;21.75;;;23.90;85.40;;;;;;2002405;71;21113;-78
2021/11/14 01:11:23;;;;;;;26.23;18.50;;;23.90;85.60;;;;;;1982402;71;21053;-78
2021/11/14 01:13:54;;;;;;;26.23;19.27;;;23.90;85.70;;;;;;1991799;71;21165;-78
2021/11/14 01:16:26;;;;;;;29.35;20.90;;;23.90;85.90;;;;;;2000151;71;21528;-78
2021/11/14 01:18:57;;;;;;;29.92;21.15;;;23.90;86.30;;;;;;1996715;71;21652;-78
2021/11/14 01:21:28;;;;;;;26.20;19.10;;;23.90;85.90;;;;;;1998721;71;21100;-78
2021/11/14 01:24:00;;;;;;;27.70;20.17;;;23.90;86.30;;;;;;2005366;71;21135;-78
2021/11/14 01:26:31;;;;;;;27.73;20.35;;;24.00;86.20;;;;;;1995536;71;21522;-78
2021/11/14 01:29:02;;;;;;;24.18;19.48;;;24.10;86.10;;;;;;2005545;71;21139;-78
2021/11/14 01:31:33;;;;;;;22.70;18.92;;;24.10;85.70;;;;;;1940793;73;21152;-77
2021/11/14 01:34:04;;;;;;;25.75;18.35;;;24.10;85.70;;;;;;1992073;71;21854;-79
2021/11/14 01:36:36;;;;;;;24.07;18.02;;;24.10;85.40;;;;;;2001384;71;21029;-76
2021/11/14 01:39:09;;;;;;;22.02;17.90;;;24.20;85.40;;;;;;1985724;72;21528;-77
2021/11/14 01:41:40;;;;;;;21.25;16.12;;;24.20;84.30;;;;;;1904191;74;21423;-78
2021/11/14 01:44:13;;;;;;;21.15;17.02;;;24.20;84.40;;;;;;1995058;71;21052;-78
2021/11/14 01:46:45;;;;;;;19.65;17.37;;;24.20;84.30;;;;;;1988862;71;21119;-78
2021/11/14 01:49:16;;;;;;;22.58;16.77;;;24.30;84.40;;;;;;1944166;73;21066;-78
2021/11/14 01:51:48;;;;;;;21.85;17.40;;;24.30;83.20;;;;;;1920146;73;21168;-78
2021/11/14 01:54:19;;;;;;;20.57;16.50;;;24.40;83.20;;;;;;1956991;73;21098;-77
2021/11/14 01:56:54;;;;;;;21.80;17.05;;;24.40;83.10;;;;;;1960879;72;21645;-78
2021/11/14 01:59:25;;;;;;;20.35;16.50;;;24.40;82.80;;;;;;1955138;73;21131;-77
2021/11/14 02:01:56;;;;;;;18.17;14.95;;;24.50;82.70;;;;;;1943070;73;21702;-79
2021/11/14 02:04:30;;;;;;;20.00;15.68;;;24.60;82.00;;;;;;1931111;73;21143;-77
2021/11/14 02:07:00;;;;;;;18.75;15.15;;;24.60;81.80;;;;;;1931583;73;21069;-78
2021/11/14 02:09:33;;;;;;;22.67;15.28;;;24.70;81.50;;;;;;1964440;72;21098;-78
2021/11/14 02:12:05;;;;;;;24.55;16.05;;;24.80;81.50;;;;;;1962435;72;21100;-78
2021/11/14 02:14:36;;;;;;;21.30;15.00;;;24.80;81.30;;;;;;1989207;71;21598;-78
2021/11/14 02:17:07;;;;;;;17.73;14.25;;;24.80;80.10;;;;;;1997619;71;21548;-78
2021/11/14 02:19:38;;;;;;;16.20;13.70;;;24.90;81.00;;;;;;1995985;71;21151;-78
2021/11/14 02:22:09;;;;;;;25.48;14.30;;;24.90;79.70;;;;;;1989451;70;21126;-78
2021/11/14 02:24:40;;;;;;;19.95;14.55;;;24.90;79.60;;;;;;1998067;71;21196;-78
2021/11/14 02:27:12;;;;;;;15.35;13.08;;;25.00;80.00;;;;;;1958271;72;21120;-78
2021/11/14 02:29:43;;;;;;;17.23;13.60;;;25.00;79.00;;;;;;1977013;72;21445;-78
2021/11/14 02:32:14;;;;;;;16.10;12.65;;;25.10;78.70;;;;;;1991618;71;21567;-77
2021/11/14 02:34:46;;;;;;;17.65;13.85;;;25.20;78.50;;;;;;1962718;72;21063;-77
2021/11/14 02:37:18;;;;;;;16.07;13.08;;;25.30;78.00;;;;;;1972813;72;21546;-77
2021/11/14 02:39:50;;;;;;;14.50;12.82;;;25.30;77.20;;;;;;1999497;71;21108;-77
2021/11/14 02:42:21;;;;;;;20.05;12.47;;;25.30;76.50;;;;;;1958704;73;21487;-78
2021/11/14 02:44:52;;;;;;;13.98;12.47;;;25.40;76.50;;;;;;1953497;73;21656;-78
2021/11/14 02:47:23;;;;;;;15.78;12.98;;;25.40;76.90;;;;;;1980223;72;21603;-78
2021/11/14 02:49:54;;;;;;;18.17;12.40;;;25.50;76.50;;;;;;1971552;72;21120;-78
2021/11/14 02:52:25;;;;;;;15.63;12.03;;;25.50;75.90;;;;;;1975695;72;21080;-78
2021/11/14 02:54:56;;;;;;;16.48;12.28;;;25.60;76.80;;;;;;1985367;71;21144;-78
2021/11/14 02:57:27;;;;;;;13.80;11.95;;;25.60;75.60;;;;;;1985500;71;21570;-78
2021/11/14 02:59:58;;;;;;;17.23;12.88;;;25.70;75.40;;;;;;1993338;71;21121;-78
2021/11/14 03:02:29;;;;;;;18.20;12.07;;;25.70;75.90;;;;;;2009442;71;21551;-77
2021/11/14 03:05:00;;;;;;;15.93;11.95;;;25.80;75.50;;;;;;1992108;71;21088;-78
2021/11/14 03:07:31;;;;;;;14.45;11.70;;;25.80;75.90;;;;;;1926500;73;21135;-77
2021/11/14 03:10:04;;;;;;;15.72;11.93;;;25.80;75.50;;;;;;1896000;75;21082;-78
2021/11/14 03:12:35;;;;;;;16.27;12.53;;;25.90;75.50;;;;;;1968900;72;21139;-78
2021/11/14 03:15:07;;;;;;;17.32;11.95;;;26.00;75.60;;;;;;1956998;72;21107;-78
2021/11/14 03:17:38;;;;;;;16.07;12.33;;;26.10;74.90;;;;;;1941248;73;21114;-78
2021/11/14 03:20:09;;;;;;;17.07;13.03;;;26.20;74.30;;;;;;1899567;74;21075;-78
2021/11/14 03:22:40;;;;;;;16.00;12.82;;;26.20;74.60;;;;;;1914552;73;21092;-77
2021/11/14 03:25:11;;;;;;;16.45;12.07;;;26.30;75.00;;;;;;1920878;73;21155;-78
2021/11/14 03:27:42;;;;;;;17.10;12.33;;;26.40;74.10;;;;;;1950469;73;21107;-77
2021/11/14 03:30:15;;;;;;;18.10;12.53;;;26.50;74.00;;;;;;1945113;73;21130;-77
2021/11/14 03:32:47;;;;;;;14.87;12.00;;;26.50;73.90;;;;;;1939651;73;21751;-77
2021/11/14 03:35:19;;;;;;;16.77;12.10;;;26.60;73.50;;;;;;1949041;73;21104;-77
2021/11/14 03:37:50;;;;;;;15.53;12.43;;;26.60;73.90;;;;;;1958403;73;21158;-78
2021/11/14 03:40:22;;;;;;;16.65;11.78;;;26.70;73.60;;;;;;1957530;73;21192;-77
2021/11/14 03:42:53;;;;;;;14.30;11.60;;;26.80;73.10;;;;;;1942366;73;22089;-78
2021/11/14 03:45:24;;;;;;;17.30;11.43;;;26.90;74.40;;;;;;1967060;72;21053;-77
2021/11/14 03:47:54;;;;;;;12.80;11.05;;;27.10;72.60;;;;;;1895928;75;21197;-77
2021/11/14 03:50:26;;;;;;;16.70;12.40;;;27.20;72.10;;;;;;1916850;74;21128;-78
2021/11/14 03:52:57;;;;;;;20.97;12.10;;;27.30;72.10;;;;;;1919796;74;21127;-78
2021/11/14 03:55:28;;;;;;;14.68;11.53;;;27.30;70.70;;;;;;1917424;74;21104;-77
2021/11/14 03:57:59;;;;;;;14.75;11.63;;;27.40;70.40;;;;;;1970934;73;21131;-78
2021/11/14 04:00:32;;;;;;;15.70;11.78;;;27.40;70.60;;;;;;1899011;75;21712;-78
2021/11/14 04:03:05;;;;;;;13.50;11.48;;;27.50;70.50;;;;;;1939250;73;21148;-78
2021/11/14 04:05:37;;;;;;;14.53;12.13;;;27.60;69.90;;;;;;1944227;73;21164;-78
2021/11/14 04:08:11;;;;;;;12.68;10.82;;;27.70;70.10;;;;;;1930002;73;21593;-77
2021/11/14 04:10:44;;;;;;;13.03;10.20;;;27.70;70.30;;;;;;1906488;74;21166;-77
2021/11/14 04:13:15;;;;;;;15.28;10.75;;;27.80;68.50;;;;;;1923300;74;21550;-78
2021/11/14 04:15:47;;;;;;;13.55;11.38;;;27.80;69.70;;;;;;1942642;73;21135;-77
2021/11/14 04:18:18;;;;;;;15.25;10.98;;;27.90;68.80;;;;;;1934739;73;21150;-78
2021/11/14 04:20:49;;;;;;;14.43;11.05;;;27.90;68.60;;;;;;1936412;73;21151;-78
2021/11/14 04:23:20;;;;;;;15.35;10.78;;;27.90;69.60;;;;;;1907010;75;21173;-78
2021/11/14 04:26:10;;;;;;;12.20;10.78;;;28.00;70.00;;;;;;1893653;74;21126;-79
2021/11/14 04:28:42;;;;;;;15.13;10.70;;;28.10;69.30;;;;;;1940598;73;21167;-77
2021/11/14 04:31:13;;;;;;;15.78;10.65;;;28.20;67.90;;;;;;1906213;74;21187;-77
2021/11/14 04:33:44;;;;;;;14.43;10.72;;;28.30;67.40;;;;;;1908448;74;21214;-78
2021/11/14 04:36:15;;;;;;;15.68;10.55;;;28.40;68.60;;;;;;1906695;74;21104;-78
2021/11/14 04:38:46;;;;;;;12.05;10.20;;;28.50;67.20;;;;;;1907497;74;21115;-77
2021/11/14 04:41:17;;;;;;;15.60;10.18;;;28.50;66.80;;;;;;1850259;77;21147;-76
2021/11/14 04:43:48;;;;;;;15.48;11.28;;;28.60;66.80;;;;;;1905462;74;21049;-78
2021/11/14 04:46:19;;;;;;;14.07;10.00;;;28.70;66.50;;;;;;1906048;74;21077;-80
2021/11/14 04:48:53;;;;;;;12.30;9.58;;;28.80;66.70;;;;;;1902903;74;21071;-78
2021/11/14 04:51:24;;;;;;;12.33;10.13;;;28.90;66.20;;;;;;1906341;74;21170;-79
2021/11/14 04:53:54;;;;;;;13.48;10.25;;;28.90;67.40;;;;;;1913638;74;21123;-78
2021/11/14 04:56:25;;;;;;;12.85;10.00;;;29.00;66.50;;;;;;1902063;74;21101;-79
2021/11/14 04:59:00;;;;;;;13.65;10.95;;;29.00;66.20;;;;;;1902924;74;21180;-79
2021/11/14 05:01:32;;;;;;;12.95;10.55;;;29.00;66.10;;;;;;1902978;74;21109;-77
2021/11/14 05:04:04;;;;;;;13.95;10.25;;;29.10;66.50;;;;;;1905240;74;21128;-77
2021/11/14 05:06:35;;;;;;;13.88;10.55;;;29.10;65.60;;;;;;1908667;74;21110;-77
2021/11/14 05:09:06;;;;;;;15.90;10.20;;;29.20;65.00;;;;;;1907340;74;21137;-77
2021/11/14 05:11:37;;;;;;;13.88;9.83;;;29.20;64.60;;;;;;1906219;74;21169;-77
2021/11/14 05:14:08;;;;;;;13.03;9.45;;;29.20;64.10;;;;;;1906458;74;21108;-78
2021/11/14 05:16:39;;;;;;;13.85;9.75;;;29.20;64.70;;;;;;1903186;74;21162;-79
2021/11/14 05:19:10;;;;;;;13.93;10.60;;;29.30;64.30;;;;;;1899831;74;21100;-77
2021/11/14 05:21:40;;;;;;;12.33;10.00;;;29.40;64.00;;;;;;1907656;74;21113;-78
2021/11/14 05:24:11;;;;;;;11.73;8.88;;;29.40;62.80;;;;;;1907962;74;21224;-78
2021/11/14 05:26:42;;;;;;;14.00;9.38;;;29.40;64.30;;;;;;1904555;74;21161;-78
2021/11/14 05:29:13;;;;;;;13.53;9.75;;;29.40;64.40;;;;;;1909919;74;21626;-77
2021/11/14 05:31:43;;;;;;;12.53;9.85;;;29.40;64.50;;;;;;1904257;74;21634;-78
2021/11/14 05:34:14;;;;;;;12.53;9.40;;;29.50;64.30;;;;;;1900115;74;21144;-78
2021/11/14 05:36:45;;;;;;;10.88;8.90;;;29.50;63.20;;;;;;1871915;75;21217;-77
2021/11/14 05:39:16;;;;;;;12.55;10.30;;;29.60;63.20;;;;;;1876029;75;21318;-77
2021/11/14 05:41:46;;;;;;;12.47;9.40;;;29.60;63.70;;;;;;1837896;77;21064;-78
2021/11/14 05:44:17;;;;;;;11.83;9.00;;;29.60;63.60;;;;;;1872990;75;21169;-78
2021/11/14 05:46:48;;;;;;;15.28;10.50;;;29.70;63.70;;;;;;1872581;75;21139;-78
2021/11/14 05:49:19;;;;;;;10.40;8.53;;;29.70;64.20;;;;;;1834044;77;21155;-77
2021/11/14 05:51:50;;;;;;;14.78;11.75;;;29.80;63.20;;;;;;1874807;75;21586;-78
2021/11/14 05:54:20;;;;;;;13.03;8.53;;;29.80;63.20;;;;;;1875143;75;21103;-77
2021/11/14 05:56:51;;;;;;;11.85;9.33;;;29.80;63.60;;;;;;1836220;77;21223;-78
2021/11/14 06:04:48;;;;;;;10.40;9.20;;;29.80;62.90;;;;;;1873475;75;21132;-78
2021/11/14 06:06:57;;;;;;;11.55;9.20;;;29.80;63.30;;;;;;1883288;75;21104;-77
2021/11/14 06:09:28;;;;;;;12.95;9.93;;;29.80;62.80;;;;;;1884873;75;21147;-78
2021/11/14 06:11:59;;;;;;;18.23;13.40;;;29.80;62.70;;;;;;1871779;75;21579;-77
2021/11/14 06:14:30;;;;;;;16.77;9.28;;;29.90;63.40;;;;;;1837166;78;21181;-78
2021/11/14 06:17:02;;;;;;;16.12;9.40;;;29.90;62.90;;;;;;1871913;75;21116;-77
2021/11/14 06:19:32;;;;;;;14.18;8.75;;;29.90;62.70;;;;;;1847940;77;21124;-78
2021/11/14 06:22:03;;;;;;;14.73;10.03;;;29.90;61.90;;;;;;1810632;77;21190;-77
2021/11/14 06:24:35;;;;;;;12.43;9.00;;;29.90;62.30;;;;;;1841637;75;21552;-79
2021/11/14 06:27:07;;;;;;;13.20;8.55;;;29.90;62.60;;;;;;1879450;75;21858;-79
2021/11/14 06:29:38;;;;;;;12.85;10.13;;;29.90;62.00;;;;;;1891532;75;21151;-79
2021/11/14 06:32:09;;;;;;;13.68;10.10;;;29.90;62.70;;;;;;1889095;75;21139;-78
2021/11/14 06:34:40;;;;;;;16.17;8.50;;;30.00;62.00;;;;;;1884786;75;22284;-78
2021/11/14 06:37:15;;;;;;;11.08;8.60;;;30.00;62.30;;;;;;1880223;75;21707;-79
2021/11/14 06:39:46;;;;;;;14.07;8.58;;;30.00;62.60;;;;;;1841578;77;21218;-79
2021/11/14 06:42:16;;;;;;;10.23;8.10;;;29.90;62.30;;;;;;1830833;77;21672;-79
2021/11/14 06:44:48;;;;;;;15.88;7.90;;;29.90;62.20;;;;;;1790345;79;21150;-77
2021/11/14 06:47:19;;;;;;;14.65;8.73;;;29.90;62.40;;;;;;1819312;78;21214;-77
2021/11/14 06:49:52;;;;;;;11.40;8.18;;;29.80;61.80;;;;;;1837312;77;21152;-77
2021/11/14 06:52:23;;;;;;;11.35;7.45;;;29.80;62.60;;;;;;1787298;79;21134;-77
2021/11/14 06:54:54;;;;;;;13.10;8.40;;;29.70;62.70;;;;;;1810713;78;21209;-78
2021/11/14 06:57:24;;;;;;;11.93;7.97;;;29.70;62.60;;;;;;1815917;78;21213;-78
2021/11/14 06:59:55;;;;;;;11.60;8.25;;;29.60;62.70;;;;;;1812458;78;21115;-78
2021/11/14 07:02:26;;;;;;;10.90;7.87;;;29.60;63.40;;;;;;1845115;77;21777;-78
2021/11/14 07:04:57;;;;;;;11.85;8.58;;;29.60;63.60;;;;;;1843025;77;21182;-78
2021/11/14 07:07:29;;;;;;;12.03;8.83;;;29.70;63.10;;;;;;1800854;78;21118;-77
2021/11/14 07:10:00;;;;;;;11.08;8.35;;;29.70;63.10;;;;;;1804347;79;21202;-77
2021/11/14 07:12:30;;;;;;;11.75;8.53;;;29.80;62.30;;;;;;1812334;78;21132;-77
2021/11/14 07:15:01;;;;;;;10.95;8.23;;;29.80;62.20;;;;;;1816952;78;21622;-77
2021/11/14 07:17:32;;;;;;;10.15;8.13;;;29.80;62.80;;;;;;1808968;78;21096;-77
2021/11/14 07:20:04;;;;;;;12.45;7.80;;;29.90;62.70;;;;;;1811529;78;21167;-77
2021/11/14 07:22:37;;;;;;;9.25;7.40;;;29.80;62.30;;;;;;1808573;78;21650;-77
2021/11/14 07:25:08;;;;;;;10.43;7.17;;;29.80;62.60;;;;;;1818264;78;21132;-78
2021/11/14 07:27:39;;;;;;;10.43;7.40;;;29.80;62.80;;;;;;1818256;77;21223;-77
2021/11/14 07:30:15;;;;;;;11.03;7.72;;;29.80;62.40;;;;;;1819888;77;21559;-78
2021/11/14 07:32:46;;;;;;;11.85;7.97;;;29.90;62.20;;;;;;1847518;76;21584;-78
2021/11/14 07:35:19;;;;;;;12.03;7.47;;;29.90;63.30;;;;;;1880546;75;21570;-78
2021/11/14 07:37:50;;;;;;;12.07;7.80;;;29.80;62.70;;;;;;1871045;76;21182;-79
2021/11/14 07:40:23;;;;;;;13.32;8.05;;;29.80;62.30;;;;;;1884090;76;22129;-78
2021/11/14 07:42:55;;;;;;;11.80;8.93;;;29.80;62.40;;;;;;1855520;75;21114;-78
2021/11/14 07:45:27;;;;;;;11.57;7.90;;;29.80;62.50;;;;;;1815203;78;21230;-78
2021/11/14 07:47:59;;;;;;;10.15;7.55;;;29.80;62.60;;;;;;1797623;77;21570;-78
2021/11/14 07:50:30;;;;;;;12.35;7.97;;;29.80;62.60;;;;;;1877719;75;21145;-77
2021/11/14 07:53:05;;;;;;;15.98;10.88;;;29.70;62.70;;;;;;1899054;73;21065;-77
2021/11/14 07:55:36;;;;;;;16.10;11.00;;;29.70;62.90;;;;;;1889019;75;21598;-78
2021/11/14 07:58:07;;;;;;;10.20;7.25;;;29.70;63.00;;;;;;1887988;74;21484;-78
2021/11/14 08:00:39;;;;;;;11.25;7.60;;;29.70;62.70;;;;;;1882213;75;21608;-78
2021/11/14 08:03:10;;;;;;;8.98;7.85;;;29.70;62.30;;;;;;1894627;75;21520;-78
2021/11/14 08:05:42;;;;;;;10.50;7.55;;;29.70;62.40;;;;;;1896246;75;21231;-78
2021/11/14 08:08:13;;;;;;;11.48;7.72;;;29.60;62.80;;;;;;1890572;75;21205;-77
2021/11/14 08:10:44;;;;;;;11.78;7.55;;;29.60;62.40;;;;;;1885028;75;21743;-78
2021/11/14 08:13:15;;;;;;;9.80;7.10;;;29.60;62.70;;;;;;1845390;77;21137;-78
2021/11/14 08:15:46;;;;;;;13.08;7.90;;;29.60;63.00;;;;;;1858845;76;21175;-79
2021/11/14 08:18:18;;;;;;;10.80;7.55;;;29.60;63.30;;;;;;1875109;75;21551;-78
2021/11/14 08:20:49;;;;;;;13.58;7.05;;;29.70;63.20;;;;;;1878351;75;21252;-78
2021/11/14 08:23:21;;;;;;;11.20;7.35;;;29.70;63.20;;;;;;1894302;74;21154;-78
2021/11/14 08:25:52;;;;;;;9.08;7.35;;;29.70;62.90;;;;;;1898207;74;21128;-78
2021/11/14 08:28:23;;;;;;;9.25;7.50;;;29.80;62.70;;;;;;1862912;75;21623;-79
2021/11/14 08:30:54;;;;;;;9.35;7.30;;;29.80;63.00;;;;;;1887877;75;21181;-78
2021/11/14 08:33:27;;;;;;;9.90;7.55;;;29.70;62.40;;;;;;1889590;75;21191;-78
2021/11/14 08:35:58;;;;;;;9.73;7.60;;;29.70;63.00;;;;;;1900997;74;21076;-79
2021/11/14 08:38:30;;;;;;;10.58;8.40;;;29.70;62.90;;;;;;1890010;75;21112;-78
2021/11/14 08:41:00;;;;;;;8.60;7.10;;;29.60;63.10;;;;;;1898121;75;21189;-79
2021/11/14 08:43:32;;;;;;;10.45;7.85;;;29.60;63.10;;;;;;1902700;75;21155;-78
2021/11/14 08:46:03;;;;;;;9.60;7.55;;;29.50;63.40;;;;;;1902969;75;21081;-78
2021/11/14 08:48:35;;;;;;;11.22;7.62;;;29.50;63.60;;;;;;1890793;75;21202;-79
2021/11/14 08:51:06;;;;;;;10.60;7.28;;;29.40;64.10;;;;;;1851562;76;21629;-78
2021/11/14 08:53:37;;;;;;;11.00;7.47;;;29.40;64.10;;;;;;1891224;75;21639;-79
2021/11/14 08:56:08;;;;;;;11.55;7.55;;;29.40;63.50;;;;;;1891183;75;21591;-78
2021/11/14 08:58:41;;;;;;;9.93;7.33;;;29.30;64.00;;;;;;1889929;75;21105;-78
2021/11/14 09:01:12;;;;;;;10.88;7.65;;;29.30;64.20;;;;;;1897139;75;21086;-78
2021/11/14 09:03:44;;;;;;;12.13;7.97;;;29.20;64.20;;;;;;1893745;75;21567;-79
2021/11/14 09:06:14;;;;;;;13.25;8.05;;;29.20;64.40;;;;;;1886304;75;21153;-79
2021/11/14 09:08:45;;;;;;;10.10;7.42;;;29.20;64.50;;;;;;1887151;75;21150;-79
2021/11/14 09:11:17;;;;;;;14.33;7.53;;;29.10;64.50;;;;;;1883612;75;21173;-78
2021/11/14 09:13:49;;;;;;;14.13;7.15;;;29.10;65.10;;;;;;1878143;75;21142;-79
2021/11/14 09:16:20;;;;;;;11.45;7.33;;;29.10;64.90;;;;;;1873445;75;21252;-79
2021/11/14 09:18:50;;;;;;;11.48;8.43;;;29.10;64.90;;;;;;1886108;75;21195;-79
2021/11/14 09:21:22;;;;;;;10.10;7.95;;;29.10;65.30;;;;;;1886738;75;21540;-79
2021/11/14 09:23:53;;;;;;;12.37;8.28;;;29.00;65.10;;;;;;1892062;75;21060;-78
2021/11/14 09:26:23;;;;;;;11.75;7.80;;;29.00;65.00;;;;;;1855418;75;21171;-78
2021/11/14 09:28:54;;;;;;;11.22;7.95;;;29.00;65.30;;;;;;1871607;76;21124;-79
2021/11/14 09:31:25;;;;;;;12.37;7.65;;;28.90;65.40;;;;;;1881255;75;21481;-78
2021/11/14 09:33:59;;;;;;;10.00;7.72;;;29.00;65.50;;;;;;1909988;74;21174;-78
2021/11/14 09:36:42;;;;;;;10.58;7.78;;;28.90;65.60;;;;;;1904968;75;21151;-79
2021/11/14 09:39:16;;;;;;;12.23;8.48;;;28.90;65.70;;;;;;1907318;75;21092;-79
2021/11/14 09:41:50;;;;;;;10.53;7.58;;;28.90;65.80;;;;;;1889934;75;21109;-79
2021/11/14 09:44:22;;;;;;;14.87;11.03;;;28.80;65.60;;;;;;1890917;75;21625;-79
2021/11/14 09:46:55;;;;;;;10.60;7.70;;;28.80;66.00;;;;;;1860627;76;21174;-79
2021/11/14 09:49:28;;;;;;;13.65;8.73;;;28.80;65.90;;;;;;1902895;75;21112;-79
2021/11/14 09:52:02;;;;;;;12.18;8.58;;;28.80;66.00;;;;;;1861994;75;21173;-79
2021/11/14 09:54:34;;;;;;;10.45;8.38;;;28.80;66.10;;;;;;1877573;75;21069;-79
2021/11/14 09:57:06;;;;;;;12.15;8.45;;;28.70;66.20;;;;;;1867249;75;21162;-78
2021/11/14 09:59:37;;;;;;;13.25;8.78;;;28.80;66.60;;;;;;1822998;79;21210;-79
2021/11/14 10:02:10;;;;;;;12.00;8.63;;;28.80;66.40;;;;;;1855384;76;21645;-79
2021/11/14 10:04:43;;;;;;;12.00;8.13;;;28.70;66.60;;;;;;1870396;75;21170;-79
2021/11/14 10:07:16;;;;;;;9.68;8.15;;;28.70;66.90;;;;;;1897916;75;21628;-78
2021/11/14 10:09:49;;;;;;;9.68;7.85;;;28.70;67.20;;;;;;1896882;74;21173;-79
2021/11/14 10:12:23;;;;;;;11.22;8.55;;;28.70;67.40;;;;;;1896337;75;21315;-79
2021/11/14 10:14:56;;;;;;;12.65;9.40;;;28.70;67.50;;;;;;1889431;75;21104;-79
2021/11/14 10:17:28;;;;;;;12.07;8.23;;;28.70;67.50;;;;;;1904900;75;21104;-79
2021/11/14 10:20:02;;;;;;;12.68;9.35;;;28.60;67.60;;;;;;1891130;75;21771;-79
2021/11/14 10:22:34;;;;;;;14.65;10.23;;;28.70;67.80;;;;;;1880401;75;21229;-78
2021/11/14 10:25:07;;;;;;;13.32;9.33;;;28.60;67.90;;;;;;1885582;74;21615;-78
2021/11/14 10:27:39;;;;;;;15.03;10.25;;;28.60;68.10;;;;;;1876073;75;21163;-78
2021/11/14 10:30:12;;;;;;;15.23;9.80;;;28.60;68.30;;;;;;1861711;75;21087;-78
2021/11/14 10:32:43;;;;;;;18.12;12.10;;;28.60;68.20;;;;;;1868732;75;21163;-77
2021/11/14 10:35:15;;;;;;;16.30;10.68;;;28.60;68.30;;;;;;1862446;77;21128;-78
2021/11/14 10:37:46;;;;;;;12.90;9.53;;;28.50;68.50;;;;;;1863309;75;21626;-78
2021/11/14 10:40:19;;;;;;;18.27;13.08;;;28.50;68.30;;;;;;1871178;75;21124;-78
2021/11/14 10:42:53;;;;;;;18.52;10.75;;;28.50;68.50;;;;;;1863241;75;21155;-77
2021/11/14 10:45:26;;;;;;;13.05;9.68;;;28.50;68.60;;;;;;1893122;75;21210;-78
2021/11/14 10:47:59;;;;;;;17.98;11.00;;;28.50;68.80;;;;;;1881316;75;21100;-78
2021/11/14 10:50:32;;;;;;;16.25;10.48;;;28.40;68.90;;;;;;1889899;75;21134;-79
2021/11/14 10:53:06;;;;;;;16.77;11.10;;;28.40;69.00;;;;;;1887094;74;21646;-79
2021/11/14 10:55:39;;;;;;;24.80;15.72;;;28.40;69.20;;;;;;1888759;74;21213;-77
2021/11/14 10:58:12;;;;;;;17.17;10.72;;;28.30;69.40;;;;;;1916310;74;21123;-77
2021/11/14 11:00:44;;;;;;;16.48;11.30;;;28.40;69.50;;;;;;1901435;75;21197;-78
2021/11/14 11:03:16;;;;;;;16.23;10.93;;;28.30;69.80;;;;;;1910424;73;21151;-78
2021/11/14 11:05:48;;;;;;;18.52;12.13;;;28.30;70.10;;;;;;1907865;75;21190;-78
2021/11/14 11:08:26;;;;;;;18.27;13.72;;;28.30;70.10;;;;;;1910029;73;21213;-79
2021/11/14 11:11:00;;;;;;;19.82;13.28;;;28.30;70.50;;;;;;1888999;75;21213;-78
2021/11/14 11:13:32;;;;;;;18.62;13.05;;;28.20;70.90;;;;;;1894325;75;21045;-79
2021/11/14 11:16:05;;;;;;;20.82;13.40;;;28.20;71.30;;;;;;1879656;75;21630;-79
2021/11/14 11:18:38;;;;;;;17.37;11.88;;;28.20;71.60;;;;;;1886961;75;21630;-78
2021/11/14 11:21:09;;;;;;;18.52;11.50;;;28.10;71.80;;;;;;1875481;75;21061;-78
2021/11/14 11:23:45;;;;;;;19.48;11.48;;;28.10;71.80;;;;;;1884625;75;21088;-78
2021/11/14 11:26:15;;;;;;;20.25;13.13;;;28.10;72.00;;;;;;1873054;75;21171;-78
2021/11/14 11:28:49;;;;;;;17.52;13.58;;;28.10;72.10;;;;;;1838213;77;21205;-79
2021/11/14 11:31:25;;;;;;;20.57;14.20;;;28.10;72.60;;;;;;1885324;75;21092;-79
2021/11/14 11:33:55;;;;;;;21.57;14.25;;;28.00;72.50;;;;;;1904605;75;21147;-79
2021/11/14 11:36:26;;;;;;;25.32;15.40;;;28.00;72.50;;;;;;1891047;74;21552;-79
2021/11/14 11:38:57;;;;;;;19.32;13.20;;;28.00;72.70;;;;;;1885305;75;21693;-79
2021/11/14 11:41:29;;;;;;;20.00;13.85;;;28.00;72.70;;;;;;1891955;75;21167;-79
2021/11/14 11:44:00;;;;;;;19.67;12.82;;;28.00;72.70;;;;;;1873940;75;21140;-78
2021/11/14 11:46:33;;;;;;;20.95;12.90;;;27.90;72.60;;;;;;1890938;75;21559;-78
2021/11/14 11:49:08;;;;;;;17.12;11.93;;;27.90;72.70;;;;;;1911628;74;21119;-78
2021/11/14 11:51:44;;;;;;;19.95;12.10;;;27.90;72.90;;;;;;1910512;73;21151;-79
2021/11/14 11:54:16;;;;;;;17.85;12.43;;;27.90;73.90;;;;;;1899114;74;21169;-78
2021/11/14 11:56:49;;;;;;;20.00;12.25;;;27.90;73.00;;;;;;1894456;74;21075;-78
2021/11/14 11:59:22;;;;;;;21.48;12.15;;;27.90;73.40;;;;;;1892281;74;21253;-79
2021/11/14 12:01:55;;;;;;;18.23;13.68;;;27.80;72.90;;;;;;1887397;74;21170;-78
2021/11/14 12:04:29;;;;;;;17.23;12.23;;;27.80;73.10;;;;;;1895641;74;21209;-78
2021/11/14 12:07:02;;;;;;;19.60;12.35;;;27.80;74.30;;;;;;1882647;75;21598;-80
2021/11/14 12:09:35;;;;;;;22.10;12.93;;;27.80;73.50;;;;;;1878652;75;21583;-79
2021/11/14 12:12:11;;;;;;;26.07;13.58;;;27.70;74.10;;;;;;1888696;74;22031;-79
2021/11/14 12:14:42;;;;;;;18.17;13.18;;;27.70;73.70;;;;;;1884370;75;21694;-79
2021/11/14 12:17:15;;;;;;;18.05;13.30;;;27.60;73.70;;;;;;1902862;73;21127;-79
2021/11/14 12:19:48;;;;;;;22.02;13.68;;;27.60;74.10;;;;;;1903961;73;21143;-79
2021/11/14 12:22:19;;;;;;;22.27;12.90;;;27.50;74.10;;;;;;1891601;74;21195;-79
2021/11/14 12:24:52;;;;;;;18.37;14.15;;;27.50;74.20;;;;;;1892954;74;22013;-78
2021/11/14 12:27:27;;;;;;;16.67;13.08;;;27.50;74.50;;;;;;1885766;74;21794;-78
2021/11/14 12:30:01;;;;;;;21.70;12.80;;;27.50;74.70;;;;;;1885279;74;21186;-79
2021/11/14 12:32:36;;;;;;;18.37;13.40;;;27.50;74.90;;;;;;1882022;74;21260;-79
2021/11/14 12:35:07;;;;;;;22.85;13.68;;;27.40;74.90;;;;;;1869530;74;21705;-79
2021/11/14 12:37:40;;;;;;;19.57;13.30;;;27.40;75.20;;;;;;1884991;74;21100;-78
2021/11/14 12:40:14;;;;;;;22.45;13.93;;;27.40;75.30;;;;;;1875133;75;21166;-78
2021/11/14 12:42:45;;;;;;;20.12;13.85;;;27.40;75.30;;;;;;1872103;75;21147;-80
2021/11/14 12:45:15;;;;;;;17.75;13.65;;;27.40;75.40;;;;;;1885647;75;22020;-81
2021/11/14 12:47:49;;;;;;;19.07;13.43;;;27.40;75.30;;;;;;1877899;75;21081;-81
2021/11/14 12:50:25;;;;;;;18.65;13.03;;;27.40;75.40;;;;;;1881982;75;21120;-80
2021/11/14 12:52:56;;;;;;;19.70;14.33;;;27.30;75.50;;;;;;1876081;75;21221;-73
2021/11/14 12:55:28;;;;;;;22.22;14.70;;;27.30;75.70;;;;;;1884819;75;21262;-70
2021/11/14 12:58:01;;;;;;;20.77;14.83;;;27.30;75.90;;;;;;1832700;76;21179;-73